createdAt,value
2018-09-04T00:01:08.492Z,1017.68
2018-09-04T00:02:18.635Z,1017.65
2018-09-04T00:03:28.481Z,1017.64
2018-09-04T00:04:38.595Z,1017.67
2018-09-04T00:05:48.435Z,1017.64
2018-09-04T00:06:58.018Z,1017.62
2018-09-04T00:08:07.318Z,1017.67
2018-09-04T00:09:16.893Z,1017.65
2018-09-04T00:10:26.746Z,1017.64
2018-09-04T00:11:36.596Z,1017.66
2018-09-04T00:12:46.708Z,1017.59
2018-09-04T00:13:56.031Z,1017.63
2018-09-04T00:15:06.141Z,1017.64
2018-09-04T00:16:15.173Z,1017.59
2018-09-04T00:17:24.475Z,1017.61
2018-09-04T00:18:34.588Z,1017.61
2018-09-04T00:19:43.893Z,1017.55
2018-09-04T00:20:53.736Z,1017.55
2018-09-04T00:22:03.583Z,1017.58
2018-09-04T00:23:13.161Z,1017.56
2018-09-04T00:24:22.730Z,1017.52
2018-09-04T00:25:32.578Z,1017.55
2018-09-04T00:26:42.156Z,1017.57
2018-09-04T00:27:52.273Z,1017.53
2018-09-04T00:29:02.131Z,1017.58
2018-09-04T00:30:11.981Z,1017.6
2018-09-04T00:31:21.333Z,1017.58
2018-09-04T00:32:31.180Z,1017.56
2018-09-04T00:33:40.754Z,1017.56
2018-09-04T00:34:50.373Z,1017.52
2018-09-04T00:36:00.217Z,1017.51
2018-09-04T00:37:09.792Z,1017.52
2018-09-04T00:38:20.153Z,1017.5
2018-09-04T00:39:29.468Z,1017.53
2018-09-04T00:40:39.050Z,1017.55
2018-09-04T00:41:48.354Z,1017.5
2018-09-04T00:42:57.981Z,1017.5
2018-09-04T00:44:07.823Z,1017.49
2018-09-04T00:45:18.002Z,1017.48
2018-09-04T00:46:27.848Z,1017.49
2018-09-04T00:47:37.415Z,1017.53
2018-09-04T00:48:46.726Z,1017.48
2018-09-04T00:49:55.771Z,1017.49
2018-09-04T00:51:05.342Z,1017.51
2018-09-04T00:52:14.648Z,1017.49
2018-09-04T00:53:24.762Z,1017.52
2018-09-04T00:54:34.072Z,1017.49
2018-09-04T00:55:43.918Z,1017.51
2018-09-04T00:56:53.760Z,1017.52
2018-09-04T00:58:03.608Z,1017.55
2018-09-04T00:59:13.451Z,1017.51
2018-09-04T01:00:23.297Z,1017.57
2018-09-04T01:01:32.598Z,1017.54
2018-09-04T01:02:42.451Z,1017.58
2018-09-04T01:03:52.560Z,1017.56
2018-09-04T01:05:02.416Z,1017.53
2018-09-04T01:06:12.267Z,1017.57
2018-09-04T01:07:22.387Z,1017.58
2018-09-04T01:08:32.237Z,1017.56
2018-09-04T01:09:42.077Z,1017.6
2018-09-04T01:10:51.383Z,1017.58
2018-09-04T01:12:00.953Z,1017.57
2018-09-04T01:13:11.081Z,1017.58
2018-09-04T01:14:20.662Z,1017.59
2018-09-04T01:15:29.986Z,1017.58
2018-09-04T01:16:39.556Z,1017.6
2018-09-04T01:17:49.404Z,1017.61
2018-09-04T01:18:59.250Z,1017.62
2018-09-04T01:20:09.100Z,1017.62
2018-09-04T01:21:18.943Z,1017.61
2018-09-04T01:22:29.071Z,1017.61
2018-09-04T01:23:38.642Z,1017.61
2018-09-04T01:24:48.496Z,1017.63
2018-09-04T01:25:58.395Z,1017.6
2018-09-04T01:27:08.506Z,1017.62
2018-09-04T01:28:18.084Z,1017.66
2018-09-04T01:29:27.930Z,1017.62
2018-09-04T01:30:37.771Z,1017.61
2018-09-04T01:31:47.887Z,1017.64
2018-09-04T01:32:57.733Z,1017.62
2018-09-04T01:34:07.849Z,1017.62
2018-09-04T01:35:17.970Z,1017.58
2018-09-04T01:36:27.291Z,1017.62
2018-09-04T01:37:36.607Z,1017.63
2018-09-04T01:38:46.447Z,1017.6
2018-09-04T01:39:56.017Z,1017.62
2018-09-04T01:41:05.637Z,1017.64
2018-09-04T01:42:15.207Z,1017.67
2018-09-04T01:43:23.968Z,1017.66
2018-09-04T01:44:32.729Z,1017.66
2018-09-04T01:45:42.309Z,1017.64
2018-09-04T01:46:51.885Z,1017.64
2018-09-04T01:48:02.005Z,1017.64
2018-09-04T01:49:11.860Z,1017.68
2018-09-04T01:50:21.429Z,1017.69
2018-09-04T01:51:31.543Z,1017.68
2018-09-04T01:52:41.664Z,1017.7
2018-09-04T01:53:51.785Z,1017.68
2018-09-04T01:55:00.870Z,1017.64
2018-09-04T01:56:10.445Z,1017.69
2018-09-04T01:57:20.556Z,1017.67
2018-09-04T01:58:29.864Z,1017.67
2018-09-04T01:59:39.702Z,1017.7
2018-09-04T02:00:49.541Z,1017.67
2018-09-04T02:01:59.386Z,1017.65
2018-09-04T02:03:09.230Z,1017.64
2018-09-04T02:04:19.071Z,1017.67
2018-09-04T02:05:28.370Z,1017.69
2018-09-04T02:06:37.949Z,1017.66
2018-09-04T02:07:48.060Z,1017.65
2018-09-04T02:08:58.174Z,1017.69
2018-09-04T02:10:08.292Z,1017.67
2018-09-04T02:11:17.864Z,1017.63
2018-09-04T02:12:27.713Z,1017.67
2018-09-04T02:13:37.562Z,1017.61
2018-09-04T02:14:47.401Z,1017.67
2018-09-04T02:15:56.705Z,1017.61
2018-09-04T02:17:06.012Z,1017.65
2018-09-04T02:18:15.577Z,1017.62
2018-09-04T02:19:24.928Z,1017.61
2018-09-04T02:20:35.042Z,1017.64
2018-09-04T02:21:44.410Z,1017.61
2018-09-04T02:22:54.257Z,1017.64
2018-09-04T02:24:03.841Z,1017.62
2018-09-04T02:25:13.429Z,1017.63
2018-09-04T02:26:22.727Z,1017.61
2018-09-04T02:27:32.836Z,1017.58
2018-09-04T02:28:42.137Z,1017.61
2018-09-04T02:29:51.714Z,1017.6
2018-09-04T02:31:01.558Z,1017.6
2018-09-04T02:32:11.411Z,1017.58
2018-09-04T02:33:20.988Z,1017.61
2018-09-04T02:34:31.118Z,1017.59
2018-09-04T02:35:40.966Z,1017.61
2018-09-04T02:36:50.546Z,1017.6
2018-09-04T02:38:00.426Z,1017.59
2018-09-04T02:39:10.001Z,1017.57
2018-09-04T02:40:19.303Z,1017.56
2018-09-04T02:41:29.147Z,1017.56
2018-09-04T02:42:38.997Z,1017.56
2018-09-04T02:43:48.573Z,1017.55
2018-09-04T02:44:58.428Z,1017.54
2018-09-04T02:46:08.275Z,1017.57
2018-09-04T02:47:18.122Z,1017.49
2018-09-04T02:48:27.964Z,1017.5
2018-09-04T02:49:37.547Z,1017.54
2018-09-04T02:50:47.666Z,1017.47
2018-09-04T02:51:57.784Z,1017.47
2018-09-04T02:53:07.418Z,1017.5
2018-09-04T02:54:17.268Z,1017.45
2018-09-04T02:55:27.117Z,1017.48
2018-09-04T02:56:36.969Z,1017.48
2018-09-04T02:57:46.545Z,1017.48
2018-09-04T02:58:56.652Z,1017.49
2018-09-04T03:00:06.246Z,1017.46
2018-09-04T03:01:15.821Z,1017.47
2018-09-04T03:02:25.397Z,1017.48
2018-09-04T03:03:34.981Z,1017.47
2018-09-04T03:04:45.147Z,1017.51
2018-09-04T03:05:54.722Z,1017.52
2018-09-04T03:07:04.302Z,1017.49
2018-09-04T03:08:13.339Z,1017.48
2018-09-04T03:09:22.914Z,1017.48
2018-09-04T03:10:32.232Z,1017.47
2018-09-04T03:11:42.080Z,1017.44
2018-09-04T03:12:51.658Z,1017.41
2018-09-04T03:14:01.649Z,1017.44
2018-09-04T03:15:11.530Z,1017.43
2018-09-04T03:16:21.105Z,1017.37
2018-09-04T03:17:30.140Z,1017.35
2018-09-04T03:18:39.711Z,1017.42
2018-09-04T03:19:49.556Z,1017.4
2018-09-04T03:20:59.179Z,1017.4
2018-09-04T03:22:08.211Z,1017.4
2018-09-04T03:23:17.579Z,1017.37
2018-09-04T03:24:27.382Z,1017.39
2018-09-04T03:25:36.690Z,1017.39
2018-09-04T03:26:46.807Z,1017.34
2018-09-04T03:27:56.659Z,1017.36
2018-09-04T03:29:06.497Z,1017.31
2018-09-04T03:30:16.354Z,1017.3
2018-09-04T03:31:26.492Z,1017.33
2018-09-04T03:32:36.376Z,1017.29
2018-09-04T03:33:46.224Z,1017.31
2018-09-04T03:34:55.795Z,1017.32
2018-09-04T03:36:05.369Z,1017.33
2018-09-04T03:37:14.947Z,1017.31
2018-09-04T03:38:24.800Z,1017.31
2018-09-04T03:39:34.643Z,1017.3
2018-09-04T03:40:44.489Z,1017.33
2018-09-04T03:41:54.336Z,1017.31
2018-09-04T03:43:03.920Z,1017.32
2018-09-04T03:44:13.793Z,1017.29
2018-09-04T03:45:23.940Z,1017.33
2018-09-04T03:46:33.514Z,1017.35
2018-09-04T03:47:43.092Z,1017.3
2018-09-04T03:48:52.665Z,1017.33
2018-09-04T03:50:02.514Z,1017.33
2018-09-04T03:51:12.101Z,1017.38
2018-09-04T03:52:21.493Z,1017.39
2018-09-04T03:53:31.738Z,1017.4
2018-09-04T03:54:41.870Z,1017.44
2018-09-04T03:55:51.724Z,1017.42
2018-09-04T03:57:00.757Z,1017.46
2018-09-04T03:58:10.879Z,1017.44
2018-09-04T03:59:20.998Z,1017.46
2018-09-04T04:00:31.120Z,1017.49
2018-09-04T04:01:41.233Z,1017.47
2018-09-04T04:02:50.806Z,1017.48
2018-09-04T04:04:00.697Z,1017.44
2018-09-04T04:05:10.817Z,1017.46
2018-09-04T04:06:20.394Z,1017.46
2018-09-04T04:07:30.239Z,1017.51
2018-09-04T04:08:40.353Z,1017.47
2018-09-04T04:09:50.517Z,1017.52
2018-09-04T04:11:00.642Z,1017.48
2018-09-04T04:12:10.555Z,1017.49
2018-09-04T04:13:20.622Z,1017.5
2018-09-04T04:14:30.194Z,1017.51
2018-09-04T04:15:40.053Z,1017.52
2018-09-04T04:16:49.904Z,1017.54
2018-09-04T04:17:59.484Z,1017.56
2018-09-04T04:19:09.339Z,1017.58
2018-09-04T04:20:18.913Z,1017.56
2018-09-04T04:21:28.223Z,1017.55
2018-09-04T04:22:37.533Z,1017.59
2018-09-04T04:23:47.220Z,1017.58
2018-09-04T04:24:56.947Z,1017.62
2018-09-04T04:26:06.261Z,1017.58
2018-09-04T04:27:16.424Z,1017.63
2018-09-04T04:28:26.268Z,1017.59
2018-09-04T04:29:35.850Z,1017.61
2018-09-04T04:30:45.156Z,1017.62
2018-09-04T04:31:55.000Z,1017.61
2018-09-04T04:33:04.847Z,1017.6
2018-09-04T04:34:14.936Z,1017.6
2018-09-04T04:35:24.512Z,1017.6
2018-09-04T04:36:34.095Z,1017.6
2018-09-04T04:37:44.215Z,1017.61
2018-09-04T04:38:54.061Z,1017.62
2018-09-04T04:40:04.248Z,1017.66
2018-09-04T04:41:13.766Z,1017.61
2018-09-04T04:42:23.347Z,1017.62
2018-09-04T04:43:33.466Z,1017.6
2018-09-04T04:44:43.314Z,1017.66
2018-09-04T04:45:53.151Z,1017.64
2018-09-04T04:47:02.466Z,1017.61
2018-09-04T04:48:12.094Z,1017.67
2018-09-04T04:49:22.564Z,1017.67
2018-09-04T04:50:32.674Z,1017.68
2018-09-04T04:51:42.533Z,1017.69
2018-09-04T04:52:52.377Z,1017.7
2018-09-04T04:54:02.222Z,1017.74
2018-09-04T04:55:12.066Z,1017.73
2018-09-04T04:56:22.198Z,1017.75
2018-09-04T04:57:31.774Z,1017.74
2018-09-04T04:58:41.341Z,1017.75
2018-09-04T04:59:51.184Z,1017.79
2018-09-04T05:01:00.760Z,1017.8
2018-09-04T05:02:10.608Z,1017.81
2018-09-04T05:03:20.184Z,1017.8
2018-09-04T05:04:29.217Z,1017.81
2018-09-04T05:05:39.063Z,1017.83
2018-09-04T05:06:48.911Z,1017.79
2018-09-04T05:07:58.524Z,1017.8
2018-09-04T05:09:08.057Z,1017.86
2018-09-04T05:10:17.630Z,1017.81
2018-09-04T05:11:27.490Z,1017.81
2018-09-04T05:12:38.302Z,1017.81
2018-09-04T05:13:48.159Z,1017.83
2018-09-04T05:14:57.730Z,1017.83
2018-09-04T05:16:07.599Z,1017.81
2018-09-04T05:17:17.783Z,1017.82
2018-09-04T05:18:27.622Z,1017.84
2018-09-04T05:19:37.464Z,1017.78
2018-09-04T05:20:47.304Z,1017.86
2018-09-04T05:21:56.879Z,1017.85
2018-09-04T05:23:06.445Z,1017.82
2018-09-04T05:24:16.014Z,1017.87
2018-09-04T05:25:25.856Z,1017.82
2018-09-04T05:26:35.703Z,1017.85
2018-09-04T05:27:45.283Z,1017.84
2018-09-04T05:28:55.127Z,1017.9
2018-09-04T05:30:04.754Z,1017.89
2018-09-04T05:31:14.054Z,1017.89
2018-09-04T05:32:23.626Z,1017.87
2018-09-04T05:33:33.484Z,1017.82
2018-09-04T05:34:43.342Z,1017.85
2018-09-04T05:35:53.472Z,1017.83
2018-09-04T05:37:03.046Z,1017.85
2018-09-04T05:38:13.167Z,1017.8
2018-09-04T05:39:23.011Z,1017.81
2018-09-04T05:40:32.326Z,1017.83
2018-09-04T05:41:41.367Z,1017.81
2018-09-04T05:42:51.216Z,1017.8
2018-09-04T05:44:00.793Z,1017.82
2018-09-04T05:45:10.418Z,1017.84
2018-09-04T05:46:20.267Z,1017.84
2018-09-04T05:47:29.846Z,1017.85
2018-09-04T05:48:39.147Z,1017.84
2018-09-04T05:49:48.457Z,1017.85
2018-09-04T05:50:58.301Z,1017.92
2018-09-04T05:52:07.877Z,1017.92
2018-09-04T05:53:17.452Z,1017.94
2018-09-04T05:54:27.563Z,1017.98
2018-09-04T05:55:37.680Z,1018.01
2018-09-04T05:56:47.529Z,1017.99
2018-09-04T05:57:57.383Z,1018.01
2018-09-04T05:59:06.977Z,1018
2018-09-04T06:00:16.292Z,1017.95
2018-09-04T06:01:26.136Z,1017.99
2018-09-04T06:02:36.253Z,1018.01
2018-09-04T06:03:45.562Z,1018.02
2018-09-04T06:04:55.138Z,1017.99
2018-09-04T06:06:04.445Z,1017.99
2018-09-04T06:07:14.559Z,1018.01
2018-09-04T06:08:24.677Z,1017.99
2018-09-04T06:09:34.526Z,1017.99
2018-09-04T06:10:44.391Z,1018
2018-09-04T06:11:54.500Z,1018.01
2018-09-04T06:13:04.078Z,1018.04
2018-09-04T06:14:14.197Z,1017.96
2018-09-04T06:15:23.773Z,1018.01
2018-09-04T06:16:33.620Z,1018.01
2018-09-04T06:17:43.191Z,1017.97
2018-09-04T06:18:53.045Z,1018
2018-09-04T06:20:03.196Z,1017.99
2018-09-04T06:21:13.143Z,1017.94
2018-09-04T06:22:22.717Z,1018
2018-09-04T06:23:32.563Z,1018.01
2018-09-04T06:24:42.158Z,1017.99
2018-09-04T06:25:51.728Z,1017.94
2018-09-04T06:27:01.597Z,1017.96
2018-09-04T06:28:11.440Z,1017.98
2018-09-04T06:29:21.345Z,1017.96
2018-09-04T06:30:31.133Z,1018.01
2018-09-04T06:31:40.981Z,1018.03
2018-09-04T06:32:50.822Z,1018.04
2018-09-04T06:34:00.727Z,1018.07
2018-09-04T06:35:11.221Z,1018.07
2018-09-04T06:36:20.799Z,1018.05
2018-09-04T06:37:32.477Z,1018.06
2018-09-04T06:38:42.332Z,1018.08
2018-09-04T06:39:51.642Z,1018.11
2018-09-04T06:41:01.775Z,1018.09
2018-09-04T06:42:11.622Z,1018.08
2018-09-04T06:43:21.737Z,1018.11
2018-09-04T06:44:31.849Z,1018.07
2018-09-04T06:45:41.695Z,1018.16
2018-09-04T06:46:50.729Z,1018.12
2018-09-04T06:48:00.588Z,1018.12
2018-09-04T06:49:10.210Z,1018.1
2018-09-04T06:50:20.054Z,1018.1
2018-09-04T06:51:29.636Z,1018.1
2018-09-04T06:52:39.481Z,1018.11
2018-09-04T06:53:49.327Z,1018.1
2018-09-04T06:54:59.189Z,1018.06
2018-09-04T06:56:08.489Z,1018.09
2018-09-04T06:57:18.340Z,1018.11
2018-09-04T06:58:28.182Z,1018.12
2018-09-04T06:59:37.491Z,1018.17
2018-09-04T07:00:47.647Z,1018.2
2018-09-04T07:01:57.770Z,1018.2
2018-09-04T07:03:07.344Z,1018.23
2018-09-04T07:04:17.474Z,1018.23
2018-09-04T07:05:26.778Z,1018.21
2018-09-04T07:06:36.891Z,1018.22
2018-09-04T07:07:46.746Z,1018.19
2018-09-04T07:08:56.861Z,1018.17
2018-09-04T07:10:06.175Z,1018.18
2018-09-04T07:11:16.020Z,1018.15
2018-09-04T07:12:25.594Z,1018.18
2018-09-04T07:13:35.710Z,1018.15
2018-09-04T07:14:45.828Z,1018.16
2018-09-04T07:15:55.976Z,1018.17
2018-09-04T07:17:05.991Z,1018.21
2018-09-04T07:18:16.361Z,1018.21
2018-09-04T07:19:26.489Z,1018.23
2018-09-04T07:20:36.336Z,1018.25
2018-09-04T07:21:45.912Z,1018.26
2018-09-04T07:22:55.216Z,1018.24
2018-09-04T07:24:04.793Z,1018.28
2018-09-04T07:25:15.059Z,1018.3
2018-09-04T07:26:24.637Z,1018.25
2018-09-04T07:27:34.750Z,1018.26
2018-09-04T07:28:44.324Z,1018.24
2018-09-04T07:29:54.442Z,1018.28
2018-09-04T07:31:04.037Z,1018.26
2018-09-04T07:32:13.616Z,1018.28
2018-09-04T07:33:23.467Z,1018.31
2018-09-04T07:34:33.041Z,1018.32
2018-09-04T07:35:42.889Z,1018.32
2018-09-04T07:36:52.465Z,1018.34
2018-09-04T07:38:02.043Z,1018.33
2018-09-04T07:39:11.349Z,1018.33
2018-09-04T07:40:21.203Z,1018.35
2018-09-04T07:41:31.042Z,1018.36
2018-09-04T07:42:40.086Z,1018.4
2018-09-04T07:43:49.719Z,1018.34
2018-09-04T07:44:59.883Z,1018.36
2018-09-04T07:46:09.721Z,1018.33
2018-09-04T07:47:19.564Z,1018.35
2018-09-04T07:48:29.136Z,1018.33
2018-09-04T07:49:38.976Z,1018.29
2018-09-04T07:50:48.823Z,1018.33
2018-09-04T07:51:58.393Z,1018.29
2018-09-04T07:53:08.248Z,1018.32
2018-09-04T07:54:18.366Z,1018.28
2018-09-04T07:55:28.011Z,1018.32
2018-09-04T07:56:37.045Z,1018.32
2018-09-04T07:57:46.627Z,1018.32
2018-09-04T07:58:56.211Z,1018.3
2018-09-04T08:00:05.838Z,1018.31
2018-09-04T08:01:15.424Z,1018.35
2018-09-04T08:02:25.035Z,1018.32
2018-09-04T08:03:34.902Z,1018.33
2018-09-04T08:04:44.210Z,1018.36
2018-09-04T08:05:54.058Z,1018.36
2018-09-04T08:07:03.638Z,1018.3
2018-09-04T08:08:13.222Z,1018.34
2018-09-04T08:09:23.068Z,1018.32
2018-09-04T08:10:32.936Z,1018.34
2018-09-04T08:11:42.522Z,1018.31
2018-09-04T08:12:51.823Z,1018.33
2018-09-04T08:14:01.400Z,1018.34
2018-09-04T08:15:10.971Z,1018.35
2018-09-04T08:16:20.281Z,1018.39
2018-09-04T08:17:30.119Z,1018.36
2018-09-04T08:18:39.963Z,1018.37
2018-09-04T08:19:49.548Z,1018.45
2018-09-04T08:20:59.849Z,1018.42
2018-09-04T08:22:10.066Z,1018.45
2018-09-04T08:23:19.920Z,1018.42
2018-09-04T08:24:29.765Z,1018.42
2018-09-04T08:25:39.073Z,1018.45
2018-09-04T08:26:49.192Z,1018.45
2018-09-04T08:27:58.817Z,1018.46
2018-09-04T08:29:07.854Z,1018.45
2018-09-04T08:30:17.435Z,1018.46
2018-09-04T08:31:27.553Z,1018.47
2018-09-04T08:32:36.856Z,1018.46
2018-09-04T08:33:47.224Z,1018.48
2018-09-04T08:34:56.808Z,1018.5
2018-09-04T08:36:06.394Z,1018.5
2018-09-04T08:37:16.242Z,1018.45
2018-09-04T08:38:25.828Z,1018.48
2018-09-04T08:39:35.696Z,1018.46
2018-09-04T08:40:45.014Z,1018.46
2018-09-04T08:41:54.596Z,1018.5
2018-09-04T08:43:04.176Z,1018.46
2018-09-04T08:44:14.031Z,1018.49
2018-09-04T08:45:23.874Z,1018.42
2018-09-04T08:46:33.980Z,1018.48
2018-09-04T08:47:43.586Z,1018.48
2018-09-04T08:48:53.473Z,1018.47
2018-09-04T08:50:03.082Z,1018.5
2018-09-04T08:51:13.206Z,1018.49
2018-09-04T08:52:23.065Z,1018.51
2018-09-04T08:53:32.192Z,1018.57
2018-09-04T08:54:43.103Z,1018.55
2018-09-04T08:55:52.689Z,1018.57
2018-09-04T08:57:02.547Z,1018.57
2018-09-04T08:58:12.662Z,1018.54
2018-09-04T08:59:22.518Z,1018.57
2018-09-04T09:00:32.090Z,1018.54
2018-09-04T09:01:41.665Z,1018.56
2018-09-04T09:02:51.244Z,1018.53
2018-09-04T09:04:01.366Z,1018.59
2018-09-04T09:05:10.676Z,1018.59
2018-09-04T09:06:20.872Z,1018.58
2018-09-04T09:07:30.718Z,1018.6
2018-09-04T09:08:40.354Z,1018.58
2018-09-04T09:09:50.255Z,1018.58
2018-09-04T09:11:00.286Z,1018.56
2018-09-04T09:12:09.880Z,1018.57
2018-09-04T09:13:19.727Z,1018.54
2018-09-04T09:14:29.311Z,1018.56
2018-09-04T09:15:38.616Z,1018.56
2018-09-04T09:16:48.574Z,1018.54
2018-09-04T09:17:58.343Z,1018.56
2018-09-04T09:19:08.207Z,1018.51
2018-09-04T09:20:17.777Z,1018.52
2018-09-04T09:21:27.643Z,1018.51
2018-09-04T09:22:37.514Z,1018.5
2018-09-04T09:23:47.225Z,1018.52
2018-09-04T09:24:57.076Z,1018.45
2018-09-04T09:26:06.660Z,1018.46
2018-09-04T09:27:16.796Z,1018.47
2018-09-04T09:28:26.644Z,1018.4
2018-09-04T09:29:36.223Z,1018.4
2018-09-04T09:30:45.806Z,1018.37
2018-09-04T09:31:55.439Z,1018.38
2018-09-04T09:33:05.018Z,1018.36
2018-09-04T09:34:14.869Z,1018.32
2018-09-04T09:35:24.993Z,1018.35
2018-09-04T09:36:34.878Z,1018.37
2018-09-04T09:37:45.280Z,1018.36
2018-09-04T09:38:55.128Z,1018.38
2018-09-04T09:40:04.441Z,1018.35
2018-09-04T09:41:14.567Z,1018.37
2018-09-04T09:42:24.149Z,1018.38
2018-09-04T09:43:34.311Z,1018.38
2018-09-04T09:44:44.432Z,1018.37
2018-09-04T09:45:54.289Z,1018.38
2018-09-04T09:47:03.859Z,1018.33
2018-09-04T09:48:13.717Z,1018.37
2018-09-04T09:49:23.308Z,1018.36
2018-09-04T09:50:32.363Z,1018.32
2018-09-04T09:51:42.393Z,1018.32
2018-09-04T09:52:52.045Z,1018.31
2018-09-04T09:54:02.249Z,1018.31
2018-09-04T09:55:11.829Z,1018.29
2018-09-04T09:56:21.767Z,1018.26
2018-09-04T09:57:32.158Z,1018.24
2018-09-04T09:58:42.052Z,1018.26
2018-09-04T09:59:51.697Z,1018.26
2018-09-04T10:01:02.597Z,1018.21
2018-09-04T10:02:11.917Z,1018.26
2018-09-04T10:03:22.028Z,1018.2
2018-09-04T10:04:31.634Z,1018.25
2018-09-04T10:05:41.488Z,1018.2
2018-09-04T10:06:51.355Z,1018.23
2018-09-04T10:08:01.559Z,1018.22
2018-09-04T10:09:11.252Z,1018.2
2018-09-04T10:10:21.129Z,1018.17
2018-09-04T10:11:31.354Z,1018.23
2018-09-04T10:12:41.212Z,1018.22
2018-09-04T10:13:51.059Z,1018.19
2018-09-04T10:15:00.643Z,1018.16
2018-09-04T10:16:10.498Z,1018.19
2018-09-04T10:17:20.617Z,1018.18
2018-09-04T10:18:30.242Z,1018.13
2018-09-04T10:19:39.549Z,1018.12
2018-09-04T10:20:49.833Z,1018.12
2018-09-04T10:21:59.952Z,1018.13
2018-09-04T10:23:09.804Z,1018.12
2018-09-04T10:24:19.429Z,1018.14
2018-09-04T10:25:29.272Z,1018.15
2018-09-04T10:26:38.658Z,1018.18
2018-09-04T10:27:48.862Z,1018.16
2018-09-04T10:28:58.703Z,1018.13
2018-09-04T10:30:08.021Z,1018.14
2018-09-04T10:31:17.660Z,1018.17
2018-09-04T10:32:27.239Z,1018.1
2018-09-04T10:33:37.090Z,1018.12
2018-09-04T10:34:47.203Z,1018.15
2018-09-04T10:35:56.779Z,1018.16
2018-09-04T10:37:06.956Z,1018.13
2018-09-04T10:38:17.071Z,1018.14
2018-09-04T10:39:27.190Z,1018.1
2018-09-04T10:40:37.113Z,1018.13
2018-09-04T10:41:46.729Z,1018.11
2018-09-04T10:42:56.856Z,1018.1
2018-09-04T10:44:06.971Z,1018.11
2018-09-04T10:45:17.271Z,1018.09
2018-09-04T10:46:27.117Z,1018.07
2018-09-04T10:47:36.977Z,1018.06
2018-09-04T10:48:47.098Z,1018.08
2018-09-04T10:49:56.688Z,1018.05
2018-09-04T10:51:06.531Z,1018.06
2018-09-04T10:52:16.396Z,1018.08
2018-09-04T10:53:26.572Z,1018.05
2018-09-04T10:54:36.420Z,1018.08
2018-09-04T10:55:45.732Z,1018.03
2018-09-04T10:56:55.533Z,1018.02
2018-09-04T10:58:05.377Z,1018.02
2018-09-04T10:59:15.000Z,1018.01
2018-09-04T11:00:24.037Z,1018
2018-09-04T11:01:33.613Z,1017.94
2018-09-04T11:02:43.194Z,1017.96
2018-09-04T11:03:53.037Z,1017.95
2018-09-04T11:05:02.352Z,1017.97
2018-09-04T11:06:11.932Z,1017.94
2018-09-04T11:07:21.519Z,1017.94
2018-09-04T11:08:31.373Z,1017.95
2018-09-04T11:09:41.133Z,1017.93
2018-09-04T11:10:52.634Z,1017.9
2018-09-04T11:12:02.508Z,1017.93
2018-09-04T11:13:12.407Z,1017.91
2018-09-04T11:14:22.248Z,1017.89
2018-09-04T11:15:31.822Z,1017.83
2018-09-04T11:16:41.399Z,1017.81
2018-09-04T11:17:50.981Z,1017.83
2018-09-04T11:19:00.824Z,1017.85
2018-09-04T11:20:10.674Z,1017.84
2018-09-04T11:21:20.802Z,1017.85
2018-09-04T11:22:30.644Z,1017.86
2018-09-04T11:23:39.695Z,1017.87
2018-09-04T11:24:50.405Z,1017.88
2018-09-04T11:25:59.984Z,1017.89
2018-09-04T11:27:10.099Z,1017.87
2018-09-04T11:28:19.961Z,1017.92
2018-09-04T11:29:30.107Z,1017.85
2018-09-04T11:30:40.290Z,1017.88
2018-09-04T11:31:50.617Z,1017.87
2018-09-04T11:33:00.457Z,1017.88
2018-09-04T11:34:10.031Z,1017.87
2018-09-04T11:35:20.145Z,1017.84
2018-09-04T11:36:29.725Z,1017.81
2018-09-04T11:37:39.625Z,1017.82
2018-09-04T11:38:49.750Z,1017.81
2018-09-04T11:39:58.797Z,1017.79
2018-09-04T11:41:08.374Z,1017.77
2018-09-04T11:42:18.504Z,1017.78
2018-09-04T11:43:28.390Z,1017.8
2018-09-04T11:44:37.963Z,1017.79
2018-09-04T11:45:47.005Z,1017.75
2018-09-04T11:46:57.227Z,1017.74
2018-09-04T11:48:07.626Z,1017.77
2018-09-04T11:49:16.932Z,1017.74
2018-09-04T11:50:26.252Z,1017.77
2018-09-04T11:51:35.834Z,1017.67
2018-09-04T11:52:45.143Z,1017.7
2018-09-04T11:53:54.986Z,1017.66
2018-09-04T11:55:05.105Z,1017.75
2018-09-04T11:56:14.957Z,1017.73
2018-09-04T11:57:24.531Z,1017.7
2018-09-04T11:58:33.621Z,1017.66
2018-09-04T11:59:43.596Z,1017.66
2018-09-04T12:00:53.376Z,1017.7
2018-09-04T12:02:03.269Z,1017.69
2018-09-04T12:03:13.448Z,1017.73
2018-09-04T12:04:23.031Z,1017.73
2018-09-04T12:05:32.609Z,1017.71
2018-09-04T12:06:42.971Z,1017.72
2018-09-04T12:07:53.234Z,1017.69
2018-09-04T12:09:03.081Z,1017.74
2018-09-04T12:10:13.248Z,1017.7
2018-09-04T12:11:23.100Z,1017.74
2018-09-04T12:12:33.051Z,1017.71
2018-09-04T12:13:42.428Z,1017.76
2018-09-04T12:14:52.017Z,1017.72
2018-09-04T12:16:01.868Z,1017.77
2018-09-04T12:17:11.989Z,1017.78
2018-09-04T12:18:21.566Z,1017.77
2018-09-04T12:19:30.881Z,1017.74
2018-09-04T12:20:40.761Z,1017.72
2018-09-04T12:21:51.205Z,1017.73
2018-09-04T12:23:00.516Z,1017.72
2018-09-04T12:24:10.366Z,1017.72
2018-09-04T12:25:19.946Z,1017.71
2018-09-04T12:26:29.250Z,1017.68
2018-09-04T12:27:38.612Z,1017.71
2018-09-04T12:28:48.465Z,1017.69
2018-09-04T12:29:58.050Z,1017.73
2018-09-04T12:31:07.376Z,1017.73
2018-09-04T12:32:16.954Z,1017.64
2018-09-04T12:33:25.734Z,1017.71
2018-09-04T12:34:35.582Z,1017.69
2018-09-04T12:35:45.449Z,1017.71
2018-09-04T12:36:55.313Z,1017.7
2018-09-04T12:38:04.895Z,1017.71
2018-09-04T12:39:14.206Z,1017.71
2018-09-04T12:40:23.788Z,1017.73
2018-09-04T12:41:33.371Z,1017.7
2018-09-04T12:42:43.218Z,1017.74
2018-09-04T12:43:53.065Z,1017.72
2018-09-04T12:45:03.187Z,1017.69
2018-09-04T12:46:13.036Z,1017.71
2018-09-04T12:47:23.184Z,1017.68
2018-09-04T12:48:33.149Z,1017.66
2018-09-04T12:49:43.929Z,1017.66
2018-09-04T12:50:53.877Z,1017.67
2018-09-04T12:52:03.494Z,1017.64
2018-09-04T12:53:13.531Z,1017.66
2018-09-04T12:54:23.487Z,1017.69
2018-09-04T12:55:33.493Z,1017.69
2018-09-04T12:56:43.128Z,1017.66
2018-09-04T12:57:52.982Z,1017.65
2018-09-04T12:59:02.838Z,1017.7
2018-09-04T13:00:12.169Z,1017.62
2018-09-04T13:01:21.750Z,1017.65
2018-09-04T13:02:31.601Z,1017.66
2018-09-04T13:03:41.458Z,1017.68
2018-09-04T13:04:50.502Z,1017.68
2018-09-04T13:06:00.095Z,1017.68
2018-09-04T13:07:10.006Z,1017.66
2018-09-04T13:08:19.861Z,1017.67
2018-09-04T13:09:29.714Z,1017.64
2018-09-04T13:10:39.562Z,1017.64
2018-09-04T13:11:49.413Z,1017.65
2018-09-04T13:12:59.307Z,1017.68
2018-09-04T13:14:09.494Z,1017.67
2018-09-04T13:15:19.362Z,1017.69
2018-09-04T13:16:28.949Z,1017.66
2018-09-04T13:17:38.527Z,1017.65
2018-09-04T13:18:47.842Z,1017.68
2018-09-04T13:19:57.425Z,1017.7
2018-09-04T13:21:07.027Z,1017.7
2018-09-04T13:22:17.160Z,1017.67
2018-09-04T13:23:27.276Z,1017.64
2018-09-04T13:24:37.403Z,1017.63
2018-09-04T13:25:47.516Z,1017.6
2018-09-04T13:26:57.361Z,1017.6
2018-09-04T13:28:06.402Z,1017.55
2018-09-04T13:29:15.456Z,1017.56
2018-09-04T13:30:25.320Z,1017.53
2018-09-04T13:31:35.171Z,1017.52
2018-09-04T13:32:45.287Z,1017.54
2018-09-04T13:33:54.860Z,1017.54
2018-09-04T13:35:04.722Z,1017.5
2018-09-04T13:36:13.767Z,1017.53
2018-09-04T13:37:23.078Z,1017.52
2018-09-04T13:38:32.659Z,1017.5
2018-09-04T13:39:41.977Z,1017.52
2018-09-04T13:40:51.554Z,1017.51
2018-09-04T13:42:01.142Z,1017.53
2018-09-04T13:43:10.999Z,1017.54
2018-09-04T13:44:20.852Z,1017.49
2018-09-04T13:45:30.727Z,1017.53
2018-09-04T13:46:40.043Z,1017.51
2018-09-04T13:47:49.355Z,1017.52
2018-09-04T13:48:59.536Z,1017.55
2018-09-04T13:50:09.513Z,1017.53
2018-09-04T13:51:19.335Z,1017.53
2018-09-04T13:52:28.922Z,1017.58
2018-09-04T13:53:38.772Z,1017.62
2018-09-04T13:54:48.635Z,1017.58
2018-09-04T13:55:57.947Z,1017.55
2018-09-04T13:57:07.547Z,1017.53
2018-09-04T13:58:17.244Z,1017.49
2018-09-04T13:59:26.847Z,1017.55
2018-09-04T14:00:36.160Z,1017.51
2018-09-04T14:01:45.473Z,1017.55
2018-09-04T14:02:55.602Z,1017.51
2018-09-04T14:04:05.185Z,1017.53
2018-09-04T14:05:14.555Z,1017.53
2018-09-04T14:06:24.142Z,1017.57
2018-09-04T14:07:33.997Z,1017.58